createdAt,value
2018-09-23T00:02:03.170Z,82.12
2018-09-23T00:05:27.597Z,83.09
2018-09-23T00:08:52.024Z,83.02
2018-09-23T00:12:16.551Z,82.08
2018-09-23T00:15:41.145Z,82.39
2018-09-23T00:19:05.807Z,83.16
2018-09-23T00:22:30.439Z,82.12
2018-09-23T00:25:54.994Z,82.54
2018-09-23T00:29:23.533Z,82.38
2018-09-23T00:32:47.990Z,83.59
2018-09-23T00:36:12.482Z,83.01
2018-09-23T00:39:36.887Z,82.50
2018-09-23T00:43:01.350Z,83.39
2018-09-23T00:46:25.839Z,82.81
2018-09-23T00:49:50.263Z,82.68
2018-09-23T00:53:14.714Z,82.12
2018-09-23T00:56:39.415Z,82.10
2018-09-23T01:00:03.891Z,81.40
2018-09-23T01:03:28.367Z,82.01
2018-09-23T01:06:52.793Z,81.42
2018-09-23T01:10:17.590Z,82.21
2018-09-23T01:13:42.072Z,81.62
2018-09-23T01:17:06.804Z,81.66
2018-09-23T01:20:31.282Z,81.74
2018-09-23T01:23:55.789Z,80.90
2018-09-23T01:27:20.227Z,80.56
2018-09-23T01:30:44.669Z,81.11
2018-09-23T01:34:09.076Z,80.63
2018-09-23T01:37:33.552Z,80.30
2018-09-23T01:40:57.925Z,81.41
2018-09-23T01:44:22.471Z,80.71
2018-09-23T01:47:46.898Z,81.55
2018-09-23T01:51:11.325Z,81.02
2018-09-23T01:54:35.864Z,80.24
2018-09-23T01:58:00.367Z,80.93
2018-09-23T02:01:24.820Z,80.78
2018-09-23T02:04:49.329Z,80.09
2018-09-23T02:08:13.778Z,80.17
2018-09-23T02:11:38.239Z,80.55
2018-09-23T02:15:02.719Z,80.36
2018-09-23T02:18:27.137Z,80.75
2018-09-23T02:21:51.534Z,80.07
2018-09-23T02:25:15.978Z,81.02
2018-09-23T02:28:40.453Z,81.28
2018-09-23T02:32:05.312Z,80.60
2018-09-23T02:35:29.721Z,80.77
2018-09-23T02:38:54.349Z,80.99
2018-09-23T02:42:18.773Z,81.04
2018-09-23T02:45:43.164Z,81.22
2018-09-23T02:49:07.779Z,81.13
2018-09-23T02:52:32.248Z,81.01
2018-09-23T02:55:56.746Z,80.72
2018-09-23T02:59:21.241Z,80.85
2018-09-23T03:02:45.666Z,80.78
2018-09-23T03:06:10.082Z,80.81
2018-09-23T03:09:34.469Z,80.88
2018-09-23T03:12:58.851Z,81.06
2018-09-23T03:16:23.304Z,81.75
2018-09-23T03:19:47.780Z,81.30
2018-09-23T03:23:12.168Z,81.07
2018-09-23T03:26:36.608Z,81.37
2018-09-23T03:30:01.004Z,81.16
2018-09-23T03:33:25.419Z,82.21
2018-09-23T03:36:49.821Z,81.60
2018-09-23T03:40:14.252Z,82.04
2018-09-23T03:43:38.679Z,82.45
2018-09-23T03:47:03.087Z,82.03
2018-09-23T03:50:27.477Z,81.96
2018-09-23T03:53:51.891Z,82.23
2018-09-23T03:57:16.290Z,81.83
2018-09-23T04:00:40.736Z,82.52
2018-09-23T04:04:05.153Z,82.22
2018-09-23T04:07:29.546Z,82.27
2018-09-23T04:10:53.958Z,82.43
2018-09-23T04:14:18.367Z,83.10
2018-09-23T04:17:42.879Z,82.31
2018-09-23T04:21:07.417Z,82.45
2018-09-23T04:24:31.835Z,82.38
2018-09-23T04:27:56.237Z,82.65
2018-09-23T04:31:20.736Z,82.57
2018-09-23T04:34:45.219Z,82.57
2018-09-23T04:38:09.726Z,82.28
2018-09-23T04:41:34.155Z,83.06
2018-09-23T04:44:59.064Z,82.65
2018-09-23T04:48:23.493Z,82.65
2018-09-23T04:51:48.080Z,82.93
2018-09-23T04:55:12.551Z,82.76
2018-09-23T04:58:36.993Z,82.79
2018-09-23T05:02:01.503Z,81.66
2018-09-23T05:05:25.980Z,82.76
2018-09-23T05:08:50.485Z,82.50
2018-09-23T05:12:15.011Z,82.61
2018-09-23T05:15:39.654Z,82.75
2018-09-23T05:19:04.279Z,82.00
2018-09-23T05:22:28.729Z,81.59
2018-09-23T05:25:53.147Z,82.41
2018-09-23T05:29:17.603Z,82.58
2018-09-23T05:32:42.067Z,82.65
2018-09-23T05:36:06.531Z,82.82
2018-09-23T05:39:30.944Z,82.54
2018-09-23T05:42:55.438Z,82.89
2018-09-23T05:46:19.929Z,82.94
2018-09-23T05:49:44.340Z,83.41
2018-09-23T05:53:08.803Z,83.85
2018-09-23T05:56:33.231Z,83.30
2018-09-23T05:59:58.585Z,83.66
2018-09-23T06:03:23.042Z,83.92
2018-09-23T06:06:47.473Z,83.59
2018-09-23T06:10:12.051Z,83.55
2018-09-23T06:13:36.485Z,84.04
2018-09-23T06:17:00.971Z,83.75
2018-09-23T06:20:25.391Z,84.02
2018-09-23T06:23:49.843Z,83.29
2018-09-23T06:27:14.283Z,83.51
2018-09-23T06:30:38.688Z,83.44
2018-09-23T06:34:03.196Z,82.73
2018-09-23T06:37:27.602Z,83.99
2018-09-23T06:40:52.065Z,83.57
2018-09-23T06:44:16.501Z,83.06
2018-09-23T06:47:40.922Z,82.75
2018-09-23T06:51:05.693Z,83.50
2018-09-23T06:54:30.235Z,83.56
2018-09-23T06:57:54.668Z,83.06
2018-09-23T07:01:19.063Z,83.00
2018-09-23T07:04:43.617Z,83.90
2018-09-23T07:08:08.207Z,83.42
2018-09-23T07:11:32.722Z,82.48
2018-09-23T07:14:57.104Z,83.04
2018-09-23T07:18:28.681Z,82.70
2018-09-23T07:21:53.140Z,82.77
2018-09-23T07:25:17.758Z,82.44
2018-09-23T07:28:42.150Z,82.26
2018-09-23T07:32:06.679Z,82.38
2018-09-23T07:35:31.624Z,82.30
2018-09-23T07:38:56.039Z,82.06
2018-09-23T07:42:20.872Z,82.12
2018-09-23T07:45:45.835Z,81.38
2018-09-23T07:49:11.275Z,82.01
2018-09-23T07:52:35.844Z,81.35
2018-09-23T07:56:00.458Z,80.94
2018-09-23T07:59:24.959Z,80.45
2018-09-23T08:02:49.387Z,81.13
2018-09-23T08:06:13.822Z,80.21
2018-09-23T08:09:38.262Z,80.79
2018-09-23T08:13:02.787Z,79.56
2018-09-23T08:16:27.263Z,79.69
2018-09-23T08:19:51.860Z,79.16
2018-09-23T08:23:16.192Z,78.99
2018-09-23T08:26:40.635Z,79.21
2018-09-23T08:30:05.327Z,79.94
2018-09-23T08:33:30.353Z,79.68
2018-09-23T08:36:55.215Z,79.95
2018-09-23T08:40:19.658Z,79.98
2018-09-23T08:43:47.278Z,79.96
2018-09-23T08:47:11.849Z,79.48
2018-09-23T08:50:36.318Z,79.09
2018-09-23T08:54:00.841Z,79.76
2018-09-23T08:57:25.884Z,80.55
2018-09-23T09:00:51.340Z,80.41
2018-09-23T09:04:19.232Z,79.90
2018-09-23T09:07:43.974Z,80.41
2018-09-23T09:11:08.438Z,80.06
2018-09-23T09:14:33.054Z,79.69
2018-09-23T09:17:58.040Z,80.61
2018-09-23T09:21:22.557Z,81.12
2018-09-23T09:24:47.378Z,81.29
2018-09-23T09:28:11.881Z,81.95
2018-09-23T09:31:36.630Z,81.11
2018-09-23T09:35:01.137Z,80.43
2018-09-23T09:38:25.689Z,79.29
2018-09-23T09:41:50.168Z,81.67
2018-09-23T09:45:15.169Z,81.03
2018-09-23T09:48:39.821Z,81.46
2018-09-23T09:52:04.461Z,81.83
2018-09-23T09:55:29.313Z,80.36
2018-09-23T09:58:54.366Z,82.20
2018-09-23T10:02:19.362Z,81.40
2018-09-23T10:05:43.819Z,81.58
2018-09-23T10:09:10.451Z,81.81
2018-09-23T10:12:34.957Z,82.45
2018-09-23T10:15:59.491Z,82.49
2018-09-23T10:19:23.988Z,83.12
2018-09-23T10:22:48.615Z,83.23
2018-09-23T10:26:12.957Z,82.99
2018-09-23T10:29:37.461Z,83.12
2018-09-23T10:33:01.869Z,83.48
2018-09-23T10:36:26.385Z,82.98
2018-09-23T10:39:51.360Z,83.31
2018-09-23T10:43:15.919Z,82.95
2018-09-23T10:46:40.353Z,84.07
2018-09-23T10:50:04.892Z,84.16
2018-09-23T10:53:29.851Z,84.56
2018-09-23T10:56:54.273Z,84.35
2018-09-23T11:00:18.735Z,84.32
2018-09-23T11:03:43.221Z,84.67
2018-09-23T11:07:07.735Z,84.00
2018-09-23T11:10:32.240Z,83.90
2018-09-23T11:13:56.829Z,84.41
2018-09-23T11:17:21.382Z,83.10
2018-09-23T11:20:45.919Z,83.30
2018-09-23T11:24:10.445Z,84.09
2018-09-23T11:27:35.040Z,82.96
2018-09-23T11:30:59.661Z,82.81
2018-09-23T11:34:24.193Z,82.84
2018-09-23T11:37:48.636Z,82.49
2018-09-23T11:41:13.133Z,82.53
2018-09-23T11:44:37.599Z,81.66
2018-09-23T11:48:02.166Z,82.30
2018-09-23T11:51:26.801Z,83.34
2018-09-23T11:54:51.333Z,83.83
2018-09-23T11:58:15.822Z,83.58
2018-09-23T12:01:40.585Z,84.45
2018-09-23T12:05:04.953Z,83.04
2018-09-23T12:08:29.398Z,83.54
2018-09-23T12:11:53.944Z,83.61
2018-09-23T12:15:18.421Z,84.55
2018-09-23T12:18:43.576Z,84.15
2018-09-23T12:22:08.393Z,84.78
2018-09-23T12:25:32.925Z,84.26
2018-09-23T12:28:57.500Z,85.20
2018-09-23T12:32:22.100Z,84.61
2018-09-23T12:35:46.627Z,85.39
2018-09-23T12:39:12.196Z,84.99
2018-09-23T12:42:36.743Z,83.97
2018-09-23T12:46:01.286Z,82.94
2018-09-23T12:49:26.777Z,83.78
2018-09-23T12:52:51.675Z,84.32
2018-09-23T12:56:17.132Z,83.62
2018-09-23T12:59:41.975Z,84.86
2018-09-23T13:03:06.891Z,83.94
2018-09-23T13:06:31.330Z,84.11
2018-09-23T13:09:55.878Z,83.15
2018-09-23T13:13:20.402Z,82.30
2018-09-23T13:16:44.857Z,82.89
2018-09-23T13:20:09.384Z,83.70
2018-09-23T13:23:33.898Z,82.92
2018-09-23T13:26:58.573Z,83.81
2018-09-23T13:30:23.254Z,84.14
2018-09-23T13:33:47.695Z,82.97
2018-09-23T13:37:12.144Z,83.27
2018-09-23T13:40:36.580Z,83.56
2018-09-23T13:44:01.048Z,82.76
2018-09-23T13:47:25.522Z,82.20
2018-09-23T13:50:54.308Z,83.25
2018-09-23T14:02:12.948Z,83.27
2018-09-23T14:05:37.356Z,83.07
2018-09-23T14:09:02.670Z,84.34
2018-09-23T14:12:27.153Z,83.68
2018-09-23T14:15:52.342Z,83.18
2018-09-23T14:19:16.858Z,83.10
2018-09-23T14:22:41.261Z,82.56
2018-09-23T14:26:05.700Z,82.74
2018-09-23T14:29:30.136Z,82.90
2018-09-23T14:32:54.537Z,81.42
2018-09-23T14:36:18.941Z,83.50
2018-09-23T14:39:43.338Z,83.10
2018-09-23T14:43:07.790Z,82.44
2018-09-23T14:46:32.198Z,82.84
2018-09-23T14:49:56.631Z,83.32
2018-09-23T14:53:21.133Z,83.34
2018-09-23T14:56:45.736Z,83.13
2018-09-23T15:00:10.442Z,83.15
2018-09-23T15:03:34.960Z,82.20
2018-09-23T15:06:59.908Z,82.57
2018-09-23T15:10:24.379Z,82.57
2018-09-23T15:13:49.076Z,82.52
2018-09-23T15:17:17.473Z,84.35
2018-09-23T15:20:42.312Z,83.22
2018-09-23T15:24:10.354Z,83.95
2018-09-23T15:27:35.456Z,83.23
2018-09-23T15:31:00.357Z,83.00
2018-09-23T15:34:27.309Z,83.71
2018-09-23T15:37:52.338Z,81.83
2018-09-23T15:41:17.760Z,80.40
2018-09-23T15:44:42.622Z,81.83
2018-09-23T15:48:11.217Z,81.38
2018-09-23T15:51:35.868Z,82.46
2018-09-23T15:55:00.722Z,81.83
2018-09-23T15:58:25.347Z,82.07
2018-09-23T16:01:51.313Z,80.67
2018-09-23T16:05:16.960Z,81.92
2018-09-23T16:08:42.603Z,82.67
2018-09-23T16:12:07.163Z,82.83
2018-09-23T16:15:32.383Z,82.19
2018-09-23T16:18:56.853Z,82.27
2018-09-23T16:22:21.281Z,81.92
2018-09-23T16:25:46.611Z,82.10
2018-09-23T16:29:11.042Z,81.68
2018-09-23T16:32:35.550Z,81.29
2018-09-23T16:36:01.012Z,81.21
2018-09-23T16:39:25.486Z,81.96
2018-09-23T16:42:50.004Z,83.04
2018-09-23T16:46:14.514Z,82.31
2018-09-23T16:49:38.992Z,82.51
2018-09-23T16:53:03.465Z,82.25
2018-09-23T16:56:27.903Z,82.63
2018-09-23T16:59:52.529Z,82.36
2018-09-23T17:03:19.202Z,82.17
2018-09-23T17:06:43.823Z,82.78
2018-09-23T17:10:08.943Z,82.67
2018-09-23T17:13:33.953Z,82.62
2018-09-23T17:16:58.490Z,82.39
2018-09-23T17:20:22.934Z,83.88
2018-09-23T17:23:47.438Z,83.16
2018-09-23T17:27:11.914Z,83.46
2018-09-23T17:30:36.394Z,83.84
2018-09-23T17:34:00.896Z,84.54
2018-09-23T17:37:26.042Z,83.97
2018-09-23T17:40:51.372Z,83.95
2018-09-23T17:44:15.852Z,84.24
2018-09-23T17:47:40.287Z,84.50
2018-09-23T17:51:04.805Z,84.90
2018-09-23T17:54:29.439Z,83.74
2018-09-23T17:57:53.843Z,84.96
2018-09-23T18:01:18.289Z,84.32
2018-09-23T18:04:42.783Z,84.82
2018-09-23T18:08:07.261Z,84.24
2018-09-23T18:11:31.707Z,84.35
2018-09-23T18:14:56.109Z,84.32
2018-09-23T18:18:20.667Z,84.18
2018-09-23T18:21:45.417Z,84.23
2018-09-23T18:25:10.095Z,83.78
2018-09-23T18:28:34.986Z,84.70
2018-09-23T18:31:59.582Z,83.75
2018-09-23T18:35:24.115Z,85.36
2018-09-23T18:38:48.795Z,84.57
2018-09-23T18:42:13.448Z,84.99
2018-09-23T18:45:38.013Z,84.31
2018-09-23T18:49:02.802Z,84.09
2018-09-23T18:52:27.391Z,84.55
2018-09-23T18:55:53.145Z,84.81
2018-09-23T18:59:17.782Z,83.52
2018-09-23T19:02:42.227Z,84.98
2018-09-23T19:06:06.654Z,84.25
2018-09-23T19:09:31.147Z,84.42
2018-09-23T19:13:00.987Z,84.06
2018-09-23T19:16:32.663Z,84.34
2018-09-23T19:20:02.544Z,84.54
2018-09-23T19:23:27.041Z,85.08
2018-09-23T19:26:51.718Z,84.27
2018-09-23T19:30:16.350Z,85.08
2018-09-23T19:33:40.812Z,85.04
2018-09-23T19:37:05.392Z,84.39
2018-09-23T19:40:30.276Z,85.45
2018-09-23T19:43:54.970Z,84.42
2018-09-23T19:47:19.514Z,84.30
2018-09-23T19:50:44.280Z,84.00
2018-09-23T19:57:23.506Z,84.91
2018-09-23T20:00:48.210Z,84.49
2018-09-23T20:04:19.426Z,83.79
2018-09-23T20:07:43.996Z,84.38
2018-09-23T20:11:08.621Z,85.13
2018-09-23T20:14:34.491Z,85.12
2018-09-23T20:17:58.991Z,84.62
2018-09-23T20:21:23.437Z,84.43
2018-09-23T20:24:47.870Z,84.41
2018-09-23T20:28:12.353Z,84.81
2018-09-23T20:31:36.754Z,84.92
2018-09-23T20:35:01.184Z,84.02
2018-09-23T20:38:25.691Z,85.16
2018-09-23T20:41:50.135Z,85.22
2018-09-23T20:45:14.613Z,84.21
2018-09-23T20:48:39.042Z,83.90
2018-09-23T20:52:03.477Z,84.55
2018-09-23T20:55:27.909Z,84.52
2018-09-23T20:58:52.410Z,85.12
2018-09-23T21:02:16.969Z,84.87
2018-09-23T21:05:41.508Z,84.82
2018-09-23T21:09:09.446Z,85.39
2018-09-23T21:12:33.986Z,85.19
2018-09-23T21:15:58.562Z,85.11
2018-09-23T21:19:23.042Z,84.40
2018-09-23T21:22:47.501Z,84.18
2018-09-23T21:26:12.172Z,84.14
2018-09-23T21:29:36.729Z,84.79
2018-09-23T21:33:01.307Z,85.27
2018-09-23T21:36:25.720Z,85.49
2018-09-23T21:39:50.176Z,85.14
2018-09-23T21:43:14.738Z,84.58
2018-09-23T21:46:39.207Z,85.16
2018-09-23T21:50:03.665Z,86.22
2018-09-23T21:53:28.061Z,86.04
2018-09-23T21:56:52.499Z,85.78
2018-09-23T22:00:16.987Z,86.44
2018-09-23T22:03:41.375Z,86.47
2018-09-23T22:07:05.912Z,86.19
2018-09-23T22:10:30.364Z,85.65
2018-09-23T22:13:54.755Z,85.29
2018-09-23T22:17:19.170Z,85.42
2018-09-23T22:20:43.556Z,84.21
2018-09-23T22:24:08.199Z,85.85
2018-09-23T22:27:32.835Z,84.26
2018-09-23T22:30:57.280Z,84.93
2018-09-23T22:34:21.661Z,85.28
2018-09-23T22:37:46.131Z,85.92
2018-09-23T22:41:10.578Z,85.33
2018-09-23T22:44:35.004Z,85.30
2018-09-23T22:47:59.393Z,85.71
2018-09-23T22:51:23.792Z,85.87
2018-09-23T22:54:48.307Z,85.42
2018-09-23T22:58:12.742Z,84.96
2018-09-23T23:01:37.162Z,84.39
2018-09-23T23:05:01.577Z,85.11
2018-09-23T23:08:25.961Z,84.40
2018-09-23T23:11:50.484Z,85.16
2018-09-23T23:15:15.040Z,85.56
2018-09-23T23:18:39.492Z,85.21
2018-09-23T23:22:04.093Z,84.49
2018-09-23T23:25:28.560Z,84.34
2018-09-23T23:28:53.079Z,85.12
2018-09-23T23:32:17.724Z,85.33
2018-09-23T23:35:42.214Z,85.13
2018-09-23T23:39:09.456Z,85.38
2018-09-23T23:42:33.891Z,84.95
2018-09-23T23:45:58.353Z,85.51
2018-09-23T23:49:22.797Z,84.79
2018-09-23T23:52:59.712Z,84.56
2018-09-23T23:56:24.241Z,85.00
2018-09-23T23:59:48.799Z,85.34
